Time;durP1;ratioP1;P1;durP2;ratioP2;P2;SDS_P1;SDS_P2;PMS_P1;PMS_P2;Temp;Humidity;BMP_temperature;BMP_pressure;BME280_temperature;BME280_humidity;BME280_pressure;Samples;Min_cycle;Max_cycle;Signal;HPM_P1;HPM_P2
2022/11/05 00:16:42;;;;;;;50.13;25.33;;;;;;;9.51;98.28;96704.72;5023779;28;20119;-55
2022/11/05 00:16:54;;;;;;;51.88;26.58;;;;;;;9.59;98.21;96706.41;5023623;28;20077;-55
2022/11/05 00:19:21;;;;;;;48.95;24.13;;;;;;;9.58;97.82;96685.44;5022552;28;20081;-58
2022/11/05 00:27:18;;;;;;;44.92;23.40;;;;;;;9.35;98.36;96634.97;5023894;28;20136;-55
2022/11/05 00:29:44;;;;;;;48.63;23.50;;;;;;;9.63;99.88;96696.19;5024093;28;20119;-55
2022/11/05 00:32:11;;;;;;;49.38;24.10;;;;;;;9.73;99.24;96694.75;5020278;28;20081;-56
2022/11/05 00:34:37;;;;;;;42.90;22.98;;;;;;;9.60;98.69;96679.53;5039257;28;20126;-62
2022/11/05 00:37:04;;;;;;;48.97;24.80;;;;;;;9.61;98.46;96693.00;5024023;28;20132;-62
2022/11/05 00:39:31;;;;;;;48.25;23.77;;;;;;;9.63;98.23;96689.84;5023574;28;20492;-56
2022/11/05 00:45:01;;;;;;;42.45;21.75;;;;;;;9.51;97.59;96671.53;5027056;28;20140;-57
2022/11/05 00:50:19;;;;;;;47.38;23.45;;;;;;;9.52;98.19;96689.72;5027273;28;20120;-63
2022/11/05 00:52:58;;;;;;;43.42;23.58;;;;;;;9.45;99.01;96689.63;5027277;28;20132;-62
2022/11/05 00:55:36;;;;;;;41.80;22.25;;;;;;;9.37;99.26;96687.91;5027048;28;20046;-62
2022/11/05 00:58:09;;;;;;;45.83;22.85;;;;;;;9.09;99.91;96654.28;5027416;28;20153;-55
2022/11/05 01:00:37;;;;;;;43.78;23.45;;;;;;;9.26;100.00;96681.41;5027185;28;20187;-62
2022/11/05 01:03:07;;;;;;;41.75;21.92;;;;;;;9.20;100.00;96682.88;5025828;28;20081;-62
2022/11/05 01:05:42;;;;;;;42.65;22.52;;;;;;;9.19;100.00;96664.72;5027396;28;20416;-55
2022/11/05 01:08:09;;;;;;;44.95;22.38;;;;;;;8.60;100.00;96567.88;5026868;28;20056;-57
2022/11/05 01:10:41;;;;;;;40.83;22.20;;;;;;;9.35;100.00;96668.13;5027234;28;20084;-61
2022/11/05 01:13:08;;;;;;;47.13;25.45;;;;;;;8.96;100.00;96628.03;5025657;28;20141;-62
2022/11/05 01:15:40;;;;;;;48.47;24.20;;;;;;;9.08;99.43;96652.69;5025629;28;20558;-57
2022/11/05 01:18:07;;;;;;;44.08;23.08;;;;;;;9.00;98.44;96656.50;5026923;28;20077;-62
2022/11/05 01:20:33;;;;;;;50.55;24.38;;;;;;;9.09;98.44;96670.84;5027049;28;20121;-64
2022/11/05 01:23:00;;;;;;;119.60;40.92;;;;;;;8.27;97.73;96618.13;5026357;28;20619;-56
2022/11/05 01:25:27;;;;;;;47.20;24.77;;;;;;;8.66;98.19;96669.31;5026256;28;20057;-55
2022/11/05 01:27:53;;;;;;;52.50;25.17;;;;;;;8.21;98.31;96618.75;5026794;28;20084;-62
2022/11/05 01:30:21;;;;;;;54.85;25.55;;;;;;;8.30;98.04;96616.59;5026448;28;20073;-57
2022/11/05 01:32:48;;;;;;;45.90;24.15;;;;;;;8.63;97.08;96647.97;5024997;28;20526;-62
2022/11/05 01:35:16;;;;;;;48.42;25.80;;;;;;;8.55;96.62;96645.47;5026411;28;20080;-62
2022/11/05 01:37:43;;;;;;;44.28;23.60;;;;;;;8.74;94.91;96681.31;5025142;28;20427;-62
2022/11/05 01:40:13;;;;;;;45.67;22.27;;;;;;;8.76;94.29;96673.44;5026671;28;20496;-56
2022/11/05 01:42:40;;;;;;;47.38;24.17;;;;;;;8.70;95.54;96685.94;5026295;28;20057;-56
2022/11/05 01:45:11;;;;;;;53.50;24.65;;;;;;;8.61;97.15;96666.06;5026161;28;20214;-61
2022/11/05 01:47:46;;;;;;;46.65;23.70;;;;;;;8.52;98.99;96660.00;5026082;28;20136;-58
2022/11/05 01:50:37;;;;;;;50.63;26.60;;;;;;;8.60;100.00;96642.41;5026457;28;20053;-55
2022/11/05 01:53:12;;;;;;;53.40;26.40;;;;;;;8.60;100.00;96648.69;5025641;28;20081;-62
2022/11/05 01:55:44;;;;;;;50.28;26.17;;;;;;;8.47;100.00;96616.13;5026738;28;20519;-62
2022/11/05 01:58:16;;;;;;;55.95;25.65;;;;;;;8.36;100.00;96623.41;5024909;28;20136;-56
2022/11/05 02:00:43;;;;;;;55.83;26.35;;;;;;;8.54;100.00;96641.09;5024665;28;20520;-56
2022/11/05 02:03:11;;;;;;;54.85;26.75;;;;;;;8.26;100.00;96588.94;5025652;28;20080;-62
2022/11/05 02:05:40;;;;;;;46.65;25.45;;;;;;;8.65;100.00;96639.31;5025976;28;20591;-63
2022/11/05 02:08:15;;;;;;;53.13;26.38;;;;;;;8.23;100.00;96561.28;5025718;28;20472;-58
2022/11/05 02:10:43;;;;;;;55.28;27.10;;;;;;;8.26;100.00;96560.56;5024183;28;20080;-62
2022/11/05 02:13:10;;;;;;;49.72;23.65;;;;;;;8.29;99.36;96576.38;5025586;28;20329;-63
2022/11/05 02:15:59;;;;;;;45.00;23.15;;;;;;;8.53;97.99;96620.19;5024122;28;20049;-54
2022/11/05 02:18:40;;;;;;;41.85;20.77;;;;;;;8.51;97.56;96625.25;5025574;28;20140;-57
2022/11/05 02:21:36;;;;;;;45.13;21.88;;;;;;;8.51;97.03;96616.97;5023960;28;20151;-58
2022/11/05 02:24:43;;;;;;;43.40;22.98;;;;;;;8.37;99.11;96627.75;5025665;28;20071;-54
2022/11/05 02:27:12;;;;;;;42.47;21.77;;;;;;;8.43;100.00;96631.81;5013393;28;20140;-60
2022/11/05 02:29:54;;;;;;;40.95;22.67;;;;;;;8.46;100.00;96620.84;5025477;28;20046;-57
2022/11/05 02:32:24;;;;;;;40.50;22.27;;;;;;;8.52;100.00;96626.88;5025599;28;20061;-55
2022/11/05 02:35:02;;;;;;;42.08;21.50;;;;;;;8.60;100.00;96615.56;5024935;28;20053;-62
2022/11/05 02:37:35;;;;;;;49.20;23.45;;;;;;;7.87;99.95;96625.97;5023819;28;20128;-62
2022/11/05 02:40:19;;;;;;;48.27;21.73;;;;;;;7.60;100.00;96638.78;5025509;28;20080;-62
2022/11/05 02:43:13;;;;;;;47.00;22.75;;;;;;;7.63;100.00;96627.03;5025199;28;20156;-55
2022/11/05 02:45:56;;;;;;;47.78;24.60;;;;;;;7.00;100.00;96518.22;5025460;28;20115;-62
2022/11/05 02:48:28;;;;;;;44.65;22.08;;;;;;;7.83;100.00;96630.59;5024863;28;20085;-56
2022/11/05 02:51:03;;;;;;;48.58;23.92;;;;;;;7.28;100.00;96532.63;5024775;28;20046;-58
2022/11/05 02:53:44;;;;;;;44.47;23.00;;;;;;;7.95;100.00;96622.19;5024807;28;20089;-62
2022/11/05 02:56:21;;;;;;;47.88;23.50;;;;;;;7.13;100.00;96492.16;5025034;28;20140;-56
2022/11/05 02:58:47;;;;;;;50.63;25.50;;;;;;;7.93;100.00;96629.22;5025255;28;20480;-56
2022/11/05 03:01:14;;;;;;;49.90;24.10;;;;;;;7.66;98.88;96609.81;5024910;28;20080;-62
2022/11/05 03:03:42;;;;;;;53.22;26.15;;;;;;;7.69;97.57;96631.13;5025055;28;20539;-62
2022/11/05 03:06:36;;;;;;;56.95;27.27;;;;;;;7.68;97.86;96629.50;5023056;28;20080;-56
2022/11/05 03:09:12;;;;;;;56.95;28.15;;;;;;;7.55;96.91;96639.09;5024594;28;20119;-55
2022/11/05 03:12:00;;;;;;;62.55;27.73;;;;;;;7.55;97.55;96636.34;5023423;28;20115;-56
2022/11/05 03:14:50;;;;;;;62.63;30.67;;;;;;;7.52;98.02;96631.53;5023896;28;20049;-55
2022/11/05 03:17:27;;;;;;;63.67;29.70;;;;;;;7.37;97.76;96618.59;5024750;28;20141;-56
2022/11/05 03:19:57;;;;;;;74.22;32.53;;;;;;;7.44;98.73;96637.25;5024785;28;20053;-55
2022/11/05 03:22:29;;;;;;;55.65;28.17;;;;;;;7.55;98.01;96641.84;5023321;28;20049;-63
2022/11/05 03:25:01;;;;;;;60.25;27.92;;;;;;;7.54;97.95;96637.47;5023516;28;20516;-55
2022/11/05 03:27:36;;;;;;;58.17;27.77;;;;;;;7.03;97.57;96550.56;5023037;28;20147;-56
2022/11/05 03:30:08;;;;;;;56.55;26.23;;;;;;;6.95;100.00;96645.16;5024489;28;20136;-62
2022/11/05 03:32:39;;;;;;;56.85;27.90;;;;;;;7.00;100.00;96649.59;5023306;28;20081;-63
2022/11/05 03:35:21;;;;;;;46.80;26.17;;;;;;;7.11;100.00;96648.69;5024924;28;20077;-54
2022/11/05 03:37:55;;;;;;;49.50;24.85;;;;;;;7.15;100.00;96649.56;5024626;28;20084;-62
2022/11/05 03:40:23;;;;;;;49.08;25.40;;;;;;;6.96;100.00;96599.94;5024341;28;20080;-57
2022/11/05 03:42:55;;;;;;;50.88;26.70;;;;;;;7.17;100.00;96641.75;5022677;28;20148;-55
2022/11/05 03:45:35;;;;;;;58.90;29.17;;;;;;;7.18;100.00;96643.34;5023778;28;20479;-64
2022/11/05 03:48:04;;;;;;;48.75;26.58;;;;;;;7.18;100.00;96637.03;5024330;28;20176;-61
2022/11/05 03:50:52;;;;;;;56.67;27.45;;;;;;;7.26;100.00;96633.28;5023852;28;20054;-57
2022/11/05 03:53:27;;;;;;;49.42;25.38;;;;;;;7.31;100.00;96636.56;5022161;28;20132;-63
2022/11/05 03:56:00;;;;;;;58.10;27.58;;;;;;;7.20;100.00;96637.47;5024208;28;20085;-61
2022/11/05 03:58:28;;;;;;;;;;;;;;;7.22;100.00;96630.44;5024591;28;20112;-55
2022/11/05 04:00:54;;;;;;;44.22;23.33;;;;;;;6.81;100.00;96633.78;5024044;28;19975;-57
2022/11/05 04:03:21;;;;;;;51.53;24.60;;;;;;;6.47;100.00;96640.00;5039055;28;20080;-54
2022/11/05 04:13:22;;;;;;;50.13;26.65;;;;;;;6.62;100.00;96619.97;5022256;28;20096;-55
2022/11/05 04:14:05;;;;;;;60.97;28.08;;;;;;;6.33;100.00;96576.38;5024001;28;20062;-55
2022/11/05 04:24:07;;;;;;;54.75;26.20;;;;;;;6.17;100.00;96559.06;5027711;28;20148;-56
2022/11/05 04:24:50;;;;;;;85.07;32.30;;;;;;;6.46;100.00;96604.59;5015523;28;20081;-56
2022/11/05 04:27:17;;;;;;;114.03;38.42;;;;;;;6.69;100.00;96655.91;5027908;28;20242;-62
2022/11/05 04:32:28;;;;;;;73.65;31.30;;;;;;;6.51;100.00;96596.88;5027812;28;20504;-55
2022/11/05 04:34:55;;;;;;;80.22;29.70;;;;;;;6.72;100.00;96641.44;5027933;28;20377;-61
2022/11/05 04:37:21;;;;;;;66.18;28.30;;;;;;;6.86;100.00;96650.03;5026168;28;20140;-62
2022/11/05 04:39:48;;;;;;;51.03;24.73;;;;;;;6.68;100.00;96601.22;5027372;28;20060;-56
2022/11/05 04:42:14;;;;;;;42.03;23.50;;;;;;;7.14;100.00;96645.22;5026187;28;20073;-62
2022/11/05 04:44:41;;;;;;;48.00;25.50;;;;;;;7.09;100.00;96650.19;5027316;28;20057;-55
2022/11/05 04:47:07;;;;;;;54.53;25.15;;;;;;;7.11;100.00;96643.16;5027367;28;20053;-60
2022/11/05 04:49:34;;;;;;;49.63;23.45;;;;;;;6.99;100.00;96623.19;5027417;28;20499;-55
2022/11/05 04:52:01;;;;;;;47.70;24.85;;;;;;;6.91;100.00;96627.75;5027542;28;20088;-62
2022/11/05 04:54:27;;;;;;;52.95;26.90;;;;;;;6.74;98.82;96633.63;5027402;28;20079;-57
2022/11/05 04:56:54;;;;;;;50.28;25.35;;;;;;;6.90;98.80;96653.69;5025631;28;20126;-62
2022/11/05 04:59:20;;;;;;;57.80;29.05;;;;;;;6.85;95.99;96640.19;5026050;28;20450;-62
2022/11/05 05:01:51;;;;;;;49.67;26.98;;;;;;;6.44;95.91;96573.88;5027335;28;20081;-63
2022/11/05 05:04:18;;;;;;;49.67;24.73;;;;;;;6.79;97.47;96658.13;5025871;28;20653;-61
2022/11/05 05:06:44;;;;;;;49.75;24.65;;;;;;;6.67;99.31;96666.47;5009668;28;20172;-55
2022/11/05 05:09:11;;;;;;;45.75;24.70;;;;;;;6.53;99.99;96671.59;5025866;28;20542;-62
2022/11/05 05:11:38;;;;;;;59.35;29.88;;;;;;;6.50;100.00;96666.00;5027190;28;20151;-56
2022/11/05 05:14:04;;;;;;;56.00;27.27;;;;;;;6.22;100.00;96618.50;5027539;28;20477;-62
2022/11/05 05:16:31;;;;;;;61.58;26.20;;;;;;;6.45;100.00;96653.31;5025655;28;20065;-56
2022/11/05 05:18:57;;;;;;;82.85;25.20;;;;;;;6.63;100.00;96671.09;5027123;28;20053;-56
2022/11/05 05:21:39;;;;;;;66.38;25.95;;;;;;;6.64;100.00;96675.41;5026482;28;20084;-62
2022/11/05 05:24:11;;;;;;;59.50;28.58;;;;;;;6.78;100.00;96678.53;5026652;28;20057;-62
2022/11/05 05:26:41;;;;;;;68.88;34.63;;;;;;;6.86;100.00;96680.31;5026912;28;20100;-57
2022/11/05 05:29:08;;;;;;;92.80;41.60;;;;;;;6.41;100.00;96630.41;5026524;28;20564;-55
2022/11/05 05:31:35;;;;;;;102.25;54.22;;;;;;;6.44;100.00;96604.94;5024887;28;20470;-58
2022/11/05 05:34:03;;;;;;;87.22;44.28;;;;;;;6.99;100.00;96679.06;5026481;28;20080;-63
2022/11/05 05:36:30;;;;;;;61.75;32.60;;;;;;;7.08;100.00;96676.16;5025319;28;20081;-58
2022/11/05 05:38:57;;;;;;;67.68;39.63;;;;;;;7.05;98.98;96683.16;5026757;28;20050;-64
2022/11/05 05:41:24;;;;;;;77.57;42.22;;;;;;;7.08;99.04;96693.44;5026604;28;20115;-63
2022/11/05 05:43:50;;;;;;;67.82;37.88;;;;;;;7.21;97.97;96694.97;5024815;28;20091;-56
2022/11/05 05:46:18;;;;;;;56.28;29.83;;;;;;;7.19;97.35;96683.50;5025298;28;20060;-57
2022/11/05 05:48:51;;;;;;;51.97;26.90;;;;;;;7.34;98.20;96690.94;5026571;28;20500;-57
2022/11/05 05:51:18;;;;;;;40.13;24.30;;;;;;;7.40;98.37;96692.28;5026642;28;20084;-63
2022/11/05 05:53:45;;;;;;;44.20;23.70;;;;;;;7.59;97.97;96691.50;5026897;28;20173;-63
2022/11/05 05:56:13;;;;;;;43.83;25.40;;;;;;;7.76;97.95;96693.06;5026651;28;20053;-63
2022/11/05 05:58:41;;;;;;;44.72;26.35;;;;;;;7.83;97.20;96687.69;5026822;28;20844;-56
2022/11/05 06:01:11;;;;;;;50.97;27.67;;;;;;;7.92;96.57;96700.13;5026000;28;20144;-58
2022/11/05 06:03:43;;;;;;;50.38;26.70;;;;;;;8.00;95.38;96712.13;5026399;28;20136;-63
2022/11/05 06:06:12;;;;;;;52.20;27.90;;;;;;;8.15;93.81;96687.22;5024327;28;20500;-57
2022/11/05 06:08:39;;;;;;;50.25;25.92;;;;;;;8.40;93.67;96709.81;5026418;28;20480;-63
2022/11/05 06:11:06;;;;;;;55.53;27.10;;;;;;;8.36;93.12;96697.94;5026131;28;20132;-63
2022/11/05 06:13:34;;;;;;;48.47;25.65;;;;;;;8.68;92.66;96704.84;5026084;28;20057;-56
2022/11/05 06:16:06;;;;;;;58.42;24.98;;;;;;;8.70;92.03;96702.50;5026212;28;20064;-56
2022/11/05 06:18:33;;;;;;;64.53;25.33;;;;;;;8.45;92.54;96698.50;5025884;28;20064;-57
2022/11/05 06:21:06;;;;;;;71.63;26.52;;;;;;;8.43;93.73;96712.66;5025774;28;20128;-56
2022/11/05 06:23:34;;;;;;;95.38;27.67;;;;;;;8.27;95.08;96714.69;5024529;28;20088;-56
2022/11/05 06:26:06;;;;;;;87.10;28.70;;;;;;;7.98;97.34;96728.22;5025683;28;20111;-58
2022/11/05 06:28:34;;;;;;;67.15;29.05;;;;;;;7.87;100.00;96707.91;5025926;28;20920;-55
2022/11/05 06:31:00;;;;;;;65.05;26.08;;;;;;;7.74;100.00;96716.28;5025953;28;20124;-63
2022/11/05 06:33:27;;;;;;;94.03;27.40;;;;;;;8.05;100.00;96692.50;5025522;28;20155;-62
2022/11/05 06:35:57;;;;;;;56.75;26.65;;;;;;;8.60;97.76;96714.19;5025295;28;20112;-63
2022/11/05 06:38:24;;;;;;;68.20;31.17;;;;;;;8.78;96.27;96690.44;5023836;28;20482;-56
2022/11/05 06:40:51;;;;;;;59.63;29.95;;;;;;;8.66;93.99;96636.19;5024785;28;20060;-62
2022/11/05 06:43:17;;;;;;;66.07;31.15;;;;;;;9.46;93.34;96710.53;5025238;28;20220;-62
2022/11/05 06:45:44;;;;;;;62.63;28.85;;;;;;;9.47;91.44;96656.06;5025398;28;20053;-62
2022/11/05 06:48:10;;;;;;;82.93;41.50;;;;;;;10.01;89.66;96709.78;5025800;28;20053;-63
2022/11/05 06:50:37;;;;;;;68.03;30.85;;;;;;;10.31;87.91;96713.38;5024899;28;20113;-58
2022/11/05 06:53:04;;;;;;;61.42;29.67;;;;;;;10.53;86.54;96695.03;5025256;28;20065;-56
2022/11/05 06:55:31;;;;;;;75.00;31.23;;;;;;;10.63;84.27;96667.47;5024945;28;20099;-63
2022/11/05 06:57:57;;;;;;;69.10;27.98;;;;;;;11.06;84.66;96696.41;5025246;28;20096;-56
2022/11/05 07:00:24;;;;;;;70.32;29.45;;;;;;;11.43;84.04;96693.56;5024997;28;20468;-56
2022/11/05 07:02:51;;;;;;;60.30;30.45;;;;;;;11.73;83.73;96708.06;5025341;28;20476;-55
2022/11/05 07:05:17;;;;;;;59.17;25.42;;;;;;;11.89;81.98;96703.03;5023992;28;20092;-64
2022/11/05 07:07:44;;;;;;;51.10;24.20;;;;;;;11.92;81.06;96702.25;5023553;28;20092;-62
2022/11/05 07:10:15;;;;;;;48.40;23.30;;;;;;;12.13;80.44;96688.50;5023578;28;20107;-61
2022/11/05 07:12:42;;;;;;;45.65;23.48;;;;;;;11.61;80.34;96614.84;5025101;28;20107;-55
2022/11/05 07:15:10;;;;;;;48.50;25.35;;;;;;;12.24;80.43;96689.34;5025197;28;20144;-55
2022/11/05 07:17:38;;;;;;;57.63;23.67;;;;;;;12.38;79.92;96689.41;5025249;28;20146;-62
2022/11/05 07:20:06;;;;;;;51.70;24.75;;;;;;;12.70;79.37;96684.75;5023242;28;20210;-56
2022/11/05 07:22:34;;;;;;;46.13;24.00;;;;;;;12.41;78.36;96633.06;5008056;28;20167;-63
2022/11/05 07:25:01;;;;;;;43.08;22.90;;;;;;;12.86;78.54;96670.50;5024740;28;20107;-56
2022/11/05 07:27:27;;;;;;;57.28;26.85;;;;;;;12.58;80.08;96665.69;5024955;28;20133;-62
2022/11/05 07:29:54;;;;;;;58.58;25.08;;;;;;;13.01;78.80;96667.38;5023298;28;20081;-55
2022/11/05 07:32:21;;;;;;;50.17;26.10;;;;;;;12.41;77.81;96555.28;5023193;28;20449;-63
2022/11/05 07:34:47;;;;;;;55.75;24.00;;;;;;;13.32;77.37;96674.97;5024840;28;20053;-61
2022/11/05 07:37:15;;;;;;;45.17;22.08;;;;;;;13.57;76.54;96663.81;5024386;28;20880;-58
2022/11/05 07:39:42;;;;;;;40.45;22.20;;;;;;;13.67;76.50;96669.38;5024410;28;20442;-63
2022/11/05 07:42:12;;;;;;;43.22;21.30;;;;;;;13.30;76.89;96607.00;5024441;28;20053;-65
2022/11/05 07:44:39;;;;;;;52.03;23.23;;;;;;;13.80;77.08;96672.53;5022815;28;20128;-57
2022/11/05 07:47:06;;;;;;;41.95;20.77;;;;;;;13.97;76.45;96676.50;5024217;28;20562;-61
2022/11/05 07:49:33;;;;;;;40.83;21.42;;;;;;;14.18;75.96;96673.66;5024020;28;20057;-62
2022/11/05 07:51:59;;;;;;;50.33;22.30;;;;;;;14.25;76.40;96663.31;5023244;28;20156;-62
2022/11/05 07:54:26;;;;;;;38.65;20.95;;;;;;;14.50;75.55;96669.59;5024066;28;20045;-57
2022/11/05 07:56:53;;;;;;;42.50;21.88;;;;;;;14.37;76.03;96667.66;5021513;28;20133;-57
2022/11/05 07:59:19;;;;;;;44.72;21.95;;;;;;;14.36;74.76;96613.09;5023958;28;20460;-59
2022/11/05 08:01:46;;;;;;;34.28;19.85;;;;;;;14.37;73.97;96570.13;5022290;28;20136;-56
2022/11/05 08:04:13;;;;;;;45.67;20.20;;;;;;;14.48;76.70;96632.19;5024194;28;20053;-63
2022/11/05 08:06:39;;;;;;;38.47;20.52;;;;;;;13.88;77.28;96561.97;5020896;28;20057;-56
2022/11/05 08:09:06;;;;;;;41.90;23.02;;;;;;;14.75;76.60;96659.09;5036364;28;20041;-58
2022/11/05 08:11:34;;;;;;;44.83;23.02;;;;;;;14.21;76.55;96597.63;5023482;28;20083;-59
2022/11/05 08:14:01;;;;;;;48.20;24.25;;;;;;;14.35;76.93;96581.66;5022827;28;20053;-57
2022/11/05 08:16:28;;;;;;;43.05;23.50;;;;;;;14.95;74.33;96653.81;5022180;28;20050;-56
2022/11/05 08:18:54;;;;;;;41.28;24.95;;;;;;;15.42;73.58;96658.69;5023129;28;20638;-69
2022/11/05 08:21:21;;;;;;;41.38;22.65;;;;;;;15.74;72.55;96650.81;5021349;28;20054;-67
2022/11/05 08:23:48;;;;;;;44.42;23.33;;;;;;;15.61;71.22;96599.50;5022289;28;20136;-66
2022/11/05 08:26:14;;;;;;;36.50;22.83;;;;;;;16.05;71.35;96652.50;5021959;28;20559;-64
2022/11/05 08:28:41;;;;;;;45.22;22.98;;;;;;;15.90;70.71;96653.84;5022193;28;20049;-56
2022/11/05 08:31:08;;;;;;;42.63;23.52;;;;;;;15.84;70.33;96608.03;5020841;28;20049;-58
2022/11/05 08:33:34;;;;;;;34.58;21.85;;;;;;;16.24;70.73;96657.47;5023887;28;20477;-66
2022/11/05 08:36:03;;;;;;;35.78;21.90;;;;;;;16.00;71.55;96650.16;5021933;28;20077;-65
2022/11/05 08:38:30;;;;;;;39.17;21.23;;;;;;;15.82;73.78;96638.34;5025198;28;20049;-56
2022/11/05 08:40:57;;;;;;;40.83;22.67;;;;;;;15.98;72.53;96579.91;5021695;28;20046;-56
2022/11/05 08:43:24;;;;;;;39.95;23.33;;;;;;;16.56;71.47;96638.34;5023313;28;20060;-67
2022/11/05 08:45:51;;;;;;;43.95;26.25;;;;;;;16.78;70.82;96649.25;5021986;28;20085;-56
2022/11/05 08:48:19;;;;;;;35.33;21.27;;;;;;;17.01;68.72;96640.94;5015785;28;20049;-65
2022/11/05 08:50:48;;;;;;;39.25;20.80;;;;;;;16.76;68.02;96578.94;5022257;28;20108;-69
2022/11/05 08:53:15;;;;;;;37.97;21.08;;;;;;;17.13;68.16;96631.94;5021893;28;20597;-56
2022/11/05 08:55:42;;;;;;;45.60;23.83;;;;;;;17.00;68.65;96633.75;5021430;28;20140;-67
2022/11/05 08:58:11;;;;;;;43.53;22.67;;;;;;;16.71;69.77;96649.34;5022429;28;20051;-66
2022/11/05 09:00:38;;;;;;;35.38;21.55;;;;;;;17.14;68.41;96634.31;5021534;28;20156;-66
2022/11/05 09:03:07;;;;;;;36.95;21.55;;;;;;;17.02;68.52;96631.31;5022326;28;20037;-58
2022/11/05 09:05:37;;;;;;;39.03;22.33;;;;;;;16.78;70.02;96626.88;5026639;28;20134;-67
2022/11/05 09:08:06;;;;;;;42.15;22.02;;;;;;;17.14;68.31;96625.94;5026283;28;20161;-58
2022/11/05 09:10:33;;;;;;;37.53;21.63;;;;;;;17.39;67.37;96622.72;5023658;28;20053;-68
2022/11/05 09:13:00;;;;;;;39.90;23.48;;;;;;;16.49;69.24;96579.72;5024561;28;20084;-57
2022/11/05 09:15:28;;;;;;;42.28;24.77;;;;;;;17.35;68.11;96616.41;5024316;28;20103;-65
2022/11/05 09:17:55;;;;;;;42.25;24.48;;;;;;;17.29;67.80;96584.53;5023964;28;20480;-64
2022/11/05 09:20:23;;;;;;;57.95;30.23;;;;;;;17.30;66.62;96546.91;5014960;28;20091;-64
2022/11/05 09:22:50;;;;;;;62.33;31.98;;;;;;;17.75;65.75;96595.75;5029329;28;20061;-61
2022/11/05 09:25:17;;;;;;;37.72;23.52;;;;;;;18.09;64.56;96601.91;5024800;28;20045;-61
2022/11/05 09:27:44;;;;;;;41.70;24.48;;;;;;;17.33;67.29;96594.44;5024957;28;20175;-63
2022/11/05 09:30:12;;;;;;;46.15;27.48;;;;;;;17.71;66.22;96590.19;5026386;28;20500;-62
2022/11/05 09:32:39;;;;;;;58.75;30.02;;;;;;;18.03;65.35;96609.22;5026398;28;20448;-58
2022/11/05 09:35:07;;;;;;;44.90;28.35;;;;;;;17.16;66.79;96530.34;5024809;28;20107;-62
2022/11/05 09:37:36;;;;;;;50.78;26.77;;;;;;;17.98;65.67;96601.31;5026280;28;20050;-58
2022/11/05 09:40:03;;;;;;;52.35;29.42;;;;;;;18.11;65.49;96596.66;5024717;28;20095;-62
2022/11/05 09:42:45;;;;;;;42.83;24.42;;;;;;;18.38;64.23;96594.53;5025980;28;20064;-60
2022/11/05 09:45:23;;;;;;;40.13;24.48;;;;;;;18.60;62.94;96595.66;5025995;28;20148;-60
2022/11/05 09:48:00;;;;;;;42.88;25.98;;;;;;;18.59;62.64;96535.16;5024726;28;20045;-57
2022/11/05 09:50:39;;;;;;;50.97;27.80;;;;;;;19.18;61.64;96591.94;5025079;28;20119;-57
2022/11/05 09:53:08;;;;;;;44.28;24.08;;;;;;;19.40;60.44;96598.63;5026403;28;20526;-63
2022/11/05 09:55:40;;;;;;;38.15;21.73;;;;;;;19.62;59.30;96584.06;5024749;28;20060;-62
2022/11/05 09:58:33;;;;;;;37.63;21.13;;;;;;;19.94;57.34;96584.00;5024479;28;20050;-57
2022/11/05 10:01:03;;;;;;;36.58;21.02;;;;;;;19.75;56.79;96528.69;5027645;28;20080;-59
2022/11/05 10:03:33;;;;;;;35.30;20.40;;;;;;;19.43;56.20;96457.28;5025877;28;20062;-62
2022/11/05 10:06:08;;;;;;;35.95;20.23;;;;;;;19.99;55.91;96552.53;5025839;28;20136;-63
2022/11/05 10:08:41;;;;;;;34.08;20.25;;;;;;;20.09;55.84;96571.13;5024704;28;20071;-62
2022/11/05 10:11:15;;;;;;;33.30;20.10;;;;;;;19.79;55.64;96501.28;5025824;28;20107;-57
2022/11/05 10:13:55;;;;;;;37.35;19.70;;;;;;;19.95;54.64;96513.25;5025805;28;20499;-56
2022/11/05 10:16:26;;;;;;;35.58;21.08;;;;;;;20.41;54.55;96571.03;5025491;28;20049;-58
2022/11/05 10:18:59;;;;;;;32.97;19.67;;;;;;;19.64;54.23;96483.22;5026150;28;20050;-57
2022/11/05 10:21:26;;;;;;;32.38;18.63;;;;;;;20.15;53.42;96518.75;5025288;28;20108;-62
2022/11/05 10:24:18;;;;;;;36.35;18.70;;;;;;;18.69;52.59;96233.91;5024193;28;20132;-63
2022/11/05 10:26:49;;;;;;;32.63;19.03;;;;;;;20.88;52.40;96595.34;5025106;28;20054;-63
2022/11/05 10:29:24;;;;;;;30.52;18.40;;;;;;;20.92;52.41;96550.19;5024917;28;20535;-57
2022/11/05 10:31:53;;;;;;;34.40;20.02;;;;;;;20.67;52.35;96488.25;5025259;28;20123;-57
2022/11/05 10:34:25;;;;;;;37.15;21.38;;;;;;;20.82;52.22;96506.25;5024579;28;20057;-62
2022/11/05 10:36:53;;;;;;;30.13;19.83;;;;;;;21.13;52.20;96537.47;5023446;28;20132;-56
2022/11/05 10:39:20;;;;;;;36.38;21.58;;;;;;;21.28;52.18;96550.66;5023684;28;20499;-58
2022/11/05 10:42:05;;;;;;;36.00;23.20;;;;;;;20.89;52.97;96539.81;5025498;28;20524;-57
2022/11/05 10:44:34;;;;;;;32.38;21.58;;;;;;;20.61;54.05;96535.06;5025248;28;20060;-63
2022/11/05 10:47:26;;;;;;;34.33;21.15;;;;;;;20.89;54.03;96528.56;5025646;28;20095;-58
2022/11/05 10:50:00;;;;;;;32.03;21.38;;;;;;;21.05;53.82;96531.28;5025194;28;20060;-57
2022/11/05 10:52:33;;;;;;;40.35;24.60;;;;;;;20.94;54.17;96525.19;5025063;28;20103;-57
2022/11/05 10:55:09;;;;;;;36.28;22.80;;;;;;;20.35;55.44;96533.44;5024459;28;20057;-58
2022/11/05 10:57:39;;;;;;;35.30;22.27;;;;;;;20.42;55.79;96507.91;5023971;28;20053;-64
2022/11/05 11:00:15;;;;;;;39.80;22.85;;;;;;;20.25;56.56;96523.31;5023984;28;20053;-59
2022/11/05 11:02:48;;;;;;;43.65;25.23;;;;;;;20.16;56.85;96520.34;5022435;28;20053;-63
2022/11/05 11:05:27;;;;;;;44.43;25.20;;;;;;;20.29;56.23;96518.34;5022570;28;20458;-63
2022/11/05 11:07:59;;;;;;;37.05;21.98;;;;;;;20.59;54.54;96515.03;5021356;28;20130;-59
2022/11/05 11:10:27;;;;;;;39.40;21.35;;;;;;;20.43;54.81;96468.06;5023385;28;20416;-58
2022/11/05 11:12:55;;;;;;;37.03;22.80;;;;;;;20.77;54.31;96509.66;5023092;28;20050;-62
2022/11/05 11:15:33;;;;;;;39.30;22.02;;;;;;;20.37;54.24;96443.75;5023757;28;20057;-58
2022/11/05 11:18:35;;;;;;;36.50;22.80;;;;;;;20.71;54.50;96512.22;5024465;28;20084;-59
2022/11/05 11:21:11;;;;;;;37.78;24.27;;;;;;;20.47;55.28;96507.38;5024397;28;20117;-60
2022/11/05 11:23:40;;;;;;;33.05;20.63;;;;;;;20.15;55.45;96501.88;5024959;28;20056;-62
2022/11/05 11:26:09;;;;;;;42.53;21.33;;;;;;;20.18;55.26;96461.63;5022317;28;20057;-62
2022/11/05 11:28:46;;;;;;;34.88;22.00;;;;;;;20.52;54.86;96503.97;5022925;28;20050;-63
2022/11/05 11:31:25;;;;;;;34.00;20.38;;;;;;;20.39;54.98;96489.13;5024040;28;20064;-62
2022/11/05 11:34:01;;;;;;;40.88;21.85;;;;;;;20.32;54.81;96481.69;5023345;28;20060;-63
2022/11/05 11:36:34;;;;;;;29.70;19.05;;;;;;;20.11;53.27;96434.47;5023306;28;20483;-63
2022/11/05 11:39:05;;;;;;;32.83;20.45;;;;;;;19.81;53.73;96319.72;5023717;28;20653;-56
2022/11/05 11:41:40;;;;;;;41.92;25.10;;;;;;;20.77;53.54;96454.13;5024082;28;20526;-63
2022/11/05 11:44:16;;;;;;;28.70;20.02;;;;;;;21.03;52.57;96438.00;5022596;28;20520;-63
2022/11/05 11:46:48;;;;;;;35.15;19.70;;;;;;;21.15;51.42;96445.63;5023685;28;20049;-64
2022/11/05 11:49:50;;;;;;;36.45;19.95;;;;;;;21.44;51.59;96482.88;5024427;28;20131;-64
2022/11/05 11:52:26;;;;;;;32.55;19.98;;;;;;;21.49;51.69;96484.34;5024434;28;20049;-59
2022/11/05 11:55:11;;;;;;;28.40;19.13;;;;;;;21.67;51.22;96481.69;5023761;28;20057;-65
2022/11/05 11:57:47;;;;;;;37.72;19.50;;;;;;;21.01;51.18;96378.53;5022366;28;20053;-68
2022/11/05 12:00:16;;;;;;;31.08;20.75;;;;;;;19.73;50.71;96160.22;5022562;28;20041;-63
2022/11/05 12:02:58;;;;;;;32.70;20.98;;;;;;;21.73;51.05;96469.38;5022408;28;20053;-56
2022/11/05 12:05:35;;;;;;;40.25;20.80;;;;;;;21.72;51.17;96467.78;5004030;28;20054;-59
2022/11/05 12:08:12;;;;;;;32.33;21.10;;;;;;;21.85;50.53;96470.56;5021082;28;20554;-63
2022/11/05 12:10:50;;;;;;;32.42;21.15;;;;;;;21.76;50.74;96473.34;5022339;28;20045;-63
2022/11/05 12:13:19;;;;;;;31.52;20.35;;;;;;;21.69;50.67;96477.16;5023010;28;20452;-68
2022/11/05 12:15:58;;;;;;;32.92;20.38;;;;;;;21.66;50.57;96480.91;5021990;28;20779;-67